Terminal Aerodrome Forecast
Issued by NWS Cleveland, OH

Home | Current Version | Previous Version | Text Only | Print | Product List | Glossary Off
Versions: 1 2 3 4 5 6 7 8 9 10 11 12 13 14 15 16 17 18 19 20 21 22 23

000
FTUS41 KCLE 202300
TAFERI
TAF
KERI 202334Z 2100/2124 24015G25KT 2SM -SHSN SCT005 OVC015
      TEMPO 2100/2104 1/2SM SHSN OVC005
     FM210800 27012G20KT 3SM -SHSN OVC025
     FM211100 28012KT P6SM -SHSN OVC035
     FM211600 25008KT P6SM BKN050=

USA.gov is the U.S. government's official web portal to all federal, state and local government web resources and services.